Main page
METAR-TAF:

METAR-TAF

Airports :

Khartoum International Airport

Khartoum, Sudan

latitude: 15-36N, longitude: 032-33E, elevation: 382 m

Current weather observation

The report was made 26 minutes ago, at 01:30 UTC
Wind 11 kt from the North
Temperature 28°C
Humidity 19%
Pressure 1008 hPa
Visibility 10 km or more
no clouds below 1500 m and no cumulonimbus

METAR: HSSS 180130Z 35011KT CAVOK 28/02 Q1008 NOSIG

Time: 04:56 (01:56 UTC)

Forecast

The report was made 2 hours and 56 minutes ago, at 23:00 UTC
Forecast valid from 18 at 00 UTC to 18 at 09 UTC
Wind 8 kt from the North/Northwest with gusts up to 18 kt
Visibility 10 km or more
no clouds below 1500 m and no cumulonimbus
Temporary
from 18 at 04 UTC to 18 at 09 UTC
Visibility: 6000 m

TAF: HSSS 172300Z 1800/1809 34008G18KT CAVOK TEMPO 1804/1809 6000

Weather observations and forecasts of more than 4000 airports (METAR and TAF reports).

The available stations are represented by yellow and red dots on the map.

Hover mouse over dot to see the name of the station.

Then click to see weather observations and forecasts.

To change the map : click on the green buttons with a black cross to zoom in, on the green button with a dash to zoom out, or on the green arrows for adjacent maps.


METAR-TAF: